Terminal Aerodrome Forecast
Issued by NWS Wilmington, OH

Current Version | Previous Version | Graphics & Text | Print | Product List | Glossary Off
Versions: 1 2 3 4 5 6 7 8 9 10 11 12 13 14 15 16 17 18 19 20 21

000
FTUS41 KILN 311120
TAFCVG
TAF
KCVG 311120Z 3112/0118 VRB03KT P6SM FEW080 BKN250
     FM311800 05006KT P6SM SCT080 OVC250
     FM010000 08004KT P6SM SCT150 OVC200
     FM011400 14006KT P6SM SCT150=

USA.gov is the U.S. government's official web portal to all federal, state and local government web resources and services.